Time;durP1;ratioP1;P1;durP2;ratioP2;P2;SDS_P1;SDS_P2;PMS_P1;PMS_P2;Temp;Humidity;BMP_temperature;BMP_pressure;BME280_temperature;BME280_humidity;BME280_pressure;Samples;Min_cycle;Max_cycle;Signal;HPM_P1;HPM_P2
2022/10/24 00:02:07;;;;;;;1.80;0.80;;;22.90;60.40;;;;;;4995621;28;20038;-67
2022/10/24 00:04:37;;;;;;;2.38;0.85;;;22.90;60.50;;;;;;4997302;28;20029;-67
2022/10/24 00:07:04;;;;;;;1.13;0.80;;;22.90;60.50;;;;;;4980074;28;20080;-67
2022/10/24 00:09:31;;;;;;;1.42;0.80;;;22.90;60.50;;;;;;4993456;28;20017;-67
2022/10/24 00:11:56;;;;;;;0.85;0.70;;;22.90;60.50;;;;;;4991032;28;20041;-67
2022/10/24 00:14:22;;;;;;;2.55;0.80;;;22.80;60.40;;;;;;4995093;28;20386;-67
2022/10/24 00:16:48;;;;;;;1.25;0.70;;;22.80;60.40;;;;;;4997955;28;20054;-67
2022/10/24 00:19:13;;;;;;;1.65;0.90;;;22.90;60.50;;;;;;4999822;28;20494;-67
2022/10/24 00:21:39;;;;;;;1.50;0.80;;;22.80;60.40;;;;;;4992720;28;20033;-67
2022/10/24 00:24:05;;;;;;;1.23;0.80;;;22.90;60.50;;;;;;4995332;28;20029;-68
2022/10/24 00:26:31;;;;;;;1.40;1.05;;;22.80;60.40;;;;;;4995931;28;20030;-67
2022/10/24 00:28:57;;;;;;;1.20;0.70;;;22.80;60.40;;;;;;4993760;28;20057;-67
2022/10/24 00:31:23;;;;;;;1.58;0.80;;;22.80;60.40;;;;;;4990576;28;20870;-67
2022/10/24 00:33:48;;;;;;;0.90;0.70;;;22.80;60.40;;;;;;4994745;28;20522;-67
2022/10/24 00:36:17;;;;;;;0.88;0.70;;;22.80;60.40;;;;;;4998520;28;20564;-68
2022/10/24 00:38:43;;;;;;;1.58;0.80;;;22.80;60.50;;;;;;4997092;28;20031;-67
2022/10/24 00:41:18;;;;;;;1.25;0.70;;;22.80;60.50;;;;;;4988986;28;20427;-67
2022/10/24 00:43:44;;;;;;;1.63;0.73;;;22.80;60.50;;;;;;4957809;28;20451;-68
2022/10/24 00:46:10;;;;;;;1.58;0.80;;;22.80;60.50;;;;;;4979646;28;20393;-68
2022/10/24 00:48:40;;;;;;;1.17;0.70;;;22.80;60.40;;;;;;4986915;28;20105;-67
2022/10/24 00:51:20;;;;;;;1.30;0.90;;;22.80;60.50;;;;;;4991109;28;20065;-67
2022/10/24 00:53:50;;;;;;;1.45;0.80;;;22.80;60.50;;;;;;5003117;28;20030;-68
2022/10/24 00:56:18;;;;;;;1.00;0.70;;;22.80;60.50;;;;;;4973909;28;20034;-68
2022/10/24 00:58:45;;;;;;;0.73;0.70;;;22.80;60.50;;;;;;4990079;28;20038;-67
2022/10/24 01:01:11;;;;;;;1.20;0.80;;;22.80;60.50;;;;;;4996875;28;20045;-67
2022/10/24 01:03:37;;;;;;;1.80;0.88;;;22.80;60.50;;;;;;4998694;28;20120;-67
2022/10/24 01:06:04;;;;;;;1.88;0.90;;;22.80;60.50;;;;;;5000267;28;20074;-68
2022/10/24 01:08:36;;;;;;;1.38;0.80;;;22.70;60.50;;;;;;4988657;28;20021;-67
2022/10/24 01:11:13;;;;;;;0.90;0.75;;;22.70;60.50;;;;;;4992367;28;20803;-67
2022/10/24 01:14:07;;;;;;;1.20;0.80;;;22.70;60.40;;;;;;4983458;28;20398;-68
2022/10/24 01:16:41;;;;;;;2.13;0.75;;;22.70;60.50;;;;;;4992389;28;20042;-68
2022/10/24 01:19:17;;;;;;;1.13;0.80;;;22.80;60.50;;;;;;4979247;28;20023;-67
2022/10/24 01:21:54;;;;;;;1.15;0.80;;;22.70;60.50;;;;;;4980415;28;20132;-67
2022/10/24 01:24:41;;;;;;;1.10;0.70;;;22.80;60.60;;;;;;4988965;28;20026;-68
2022/10/24 01:27:26;;;;;;;1.88;0.73;;;22.80;60.60;;;;;;4993880;28;20453;-67
2022/10/24 01:30:04;;;;;;;1.33;0.80;;;22.70;60.50;;;;;;4991630;28;20092;-67
2022/10/24 01:32:30;;;;;;;0.93;0.75;;;22.70;60.50;;;;;;4989909;28;20035;-67
2022/10/24 01:35:16;;;;;;;1.02;0.70;;;22.70;60.60;;;;;;4990884;28;20285;-68
2022/10/24 01:38:01;;;;;;;0.77;0.60;;;22.70;60.60;;;;;;4993795;28;20105;-67
2022/10/24 01:40:37;;;;;;;1.13;0.70;;;22.70;60.50;;;;;;4998393;28;20030;-67
2022/10/24 01:43:10;;;;;;;1.05;0.70;;;22.70;60.50;;;;;;4999151;28;20087;-68
2022/10/24 01:45:40;;;;;;;1.38;0.80;;;22.70;60.50;;;;;;4999261;28;20504;-68
2022/10/24 01:48:09;;;;;;;1.38;0.75;;;22.70;60.50;;;;;;4980078;28;20019;-67
2022/10/24 01:50:37;;;;;;;0.85;0.68;;;22.70;60.50;;;;;;5002644;28;20030;-68
2022/10/24 01:53:04;;;;;;;1.20;0.70;;;22.70;60.50;;;;;;4982680;28;20049;-67
2022/10/24 01:55:31;;;;;;;1.55;0.73;;;22.70;60.60;;;;;;4998204;28;20027;-67
2022/10/24 01:57:57;;;;;;;1.45;0.70;;;22.70;60.60;;;;;;4979292;28;20026;-67
2022/10/24 02:00:24;;;;;;;0.63;0.60;;;22.70;60.60;;;;;;4982213;28;20165;-67
2022/10/24 02:03:23;;;;;;;0.98;0.63;;;22.70;60.60;;;;;;4996854;28;20065;-68
2022/10/24 02:05:54;;;;;;;1.00;0.60;;;22.70;60.60;;;;;;4995167;28;20048;-68
2022/10/24 02:08:32;;;;;;;1.35;0.73;;;22.70;60.60;;;;;;4994504;28;20031;-68
2022/10/24 02:11:01;;;;;;;0.95;0.73;;;22.70;60.60;;;;;;4994626;28;20110;-68
2022/10/24 02:13:34;;;;;;;1.30;0.80;;;22.70;60.60;;;;;;4991695;28;20347;-67
2022/10/24 02:16:01;;;;;;;1.40;0.80;;;22.70;60.60;;;;;;4993435;28;20050;-67
2022/10/24 02:18:29;;;;;;;1.40;0.70;;;22.70;60.60;;;;;;4996125;28;20110;-67
2022/10/24 02:21:04;;;;;;;0.85;0.70;;;22.70;60.60;;;;;;4996224;28;20038;-68
2022/10/24 02:23:36;;;;;;;1.55;0.77;;;22.60;60.60;;;;;;4996004;28;20021;-68
2022/10/24 02:26:05;;;;;;;1.98;0.80;;;22.70;60.60;;;;;;4996846;28;20023;-67
2022/10/24 02:28:40;;;;;;;1.20;0.73;;;22.60;61.10;;;;;;4990741;28;20113;-68
2022/10/24 02:31:14;;;;;;;1.85;0.70;;;22.70;60.60;;;;;;5002217;28;20034;-67
2022/10/24 02:33:42;;;;;;;0.55;0.50;;;22.60;60.60;;;;;;4992889;28;20030;-67
2022/10/24 02:36:11;;;;;;;0.90;0.70;;;22.60;60.60;;;;;;5001044;28;20029;-67
2022/10/24 02:38:39;;;;;;;0.65;0.50;;;22.60;60.60;;;;;;4996366;28;20034;-67
2022/10/24 02:41:10;;;;;;;1.42;0.75;;;22.60;60.60;;;;;;4996767;28;20042;-67
2022/10/24 02:43:39;;;;;;;1.75;0.70;;;22.60;60.60;;;;;;4995975;28;20414;-68
2022/10/24 02:46:05;;;;;;;;;;;22.60;60.60;;;;;;4996594;28;20037;-68
2022/10/24 02:48:37;;;;;;;0.77;0.57;;;22.60;60.60;;;;;;4996396;28;19906;-67
2022/10/24 02:51:04;;;;;;;0.98;0.68;;;22.60;60.60;;;;;;4982637;28;20030;-68
2022/10/24 02:53:30;;;;;;;0.90;0.60;;;22.60;60.60;;;;;;4991317;28;20089;-67
2022/10/24 02:55:56;;;;;;;1.83;0.70;;;22.60;60.60;;;;;;4981499;28;20030;-67
2022/10/24 02:58:21;;;;;;;0.98;0.68;;;22.60;60.60;;;;;;5001531;28;20096;-68
2022/10/24 03:00:47;;;;;;;0.85;0.60;;;22.60;60.60;;;;;;4998984;28;20038;-68
2022/10/24 03:03:13;;;;;;;1.13;0.70;;;22.60;61.20;;;;;;4995873;28;20027;-68
2022/10/24 03:05:38;;;;;;;1.27;0.60;;;22.60;60.60;;;;;;4990324;28;20022;-67
2022/10/24 03:08:04;;;;;;;0.68;0.60;;;22.60;60.60;;;;;;5003252;28;20022;-68
2022/10/24 03:10:30;;;;;;;1.00;0.70;;;22.60;60.70;;;;;;4996745;28;20056;-68
2022/10/24 03:12:56;;;;;;;1.35;0.70;;;22.60;60.60;;;;;;4980534;28;20371;-67
2022/10/24 03:15:21;;;;;;;0.82;0.70;;;22.60;60.60;;;;;;4989351;28;20102;-68
2022/10/24 03:17:48;;;;;;;1.05;0.60;;;22.60;60.60;;;;;;4985082;28;20475;-68
2022/10/24 03:20:14;;;;;;;1.27;0.70;;;22.60;60.60;;;;;;4989422;28;20022;-68
2022/10/24 03:22:40;;;;;;;0.80;0.50;;;22.60;60.70;;;;;;4995584;28;20032;-68
2022/10/24 03:25:06;;;;;;;1.00;0.60;;;22.60;60.70;;;;;;4998661;28;20026;-67
2022/10/24 03:27:35;;;;;;;0.70;0.63;;;22.60;60.70;;;;;;4999005;28;20145;-68
2022/10/24 03:30:01;;;;;;;;;;;22.60;60.70;;;;;;4995917;28;20026;-68
2022/10/24 03:32:27;;;;;;;0.60;0.60;;;22.60;60.70;;;;;;4993526;28;20009;-67
2022/10/24 03:34:52;;;;;;;0.73;0.60;;;22.60;60.60;;;;;;4986546;28;20026;-67
2022/10/24 03:37:18;;;;;;;0.82;0.60;;;22.60;60.70;;;;;;5004041;28;20465;-67
2022/10/24 03:39:44;;;;;;;0.80;0.70;;;22.60;60.70;;;;;;4994332;28;20030;-68
2022/10/24 03:42:10;;;;;;;1.13;0.60;;;22.60;60.70;;;;;;4992124;28;20389;-68
2022/10/24 03:44:36;;;;;;;1.17;0.80;;;22.60;60.70;;;;;;4998452;28;20026;-67
2022/10/24 03:47:02;;;;;;;2.05;1.05;;;22.60;60.70;;;;;;4993027;28;20026;-68
2022/10/24 03:49:27;;;;;;;1.27;0.70;;;22.60;60.70;;;;;;4994553;28;20057;-68
2022/10/24 03:51:53;;;;;;;1.15;0.80;;;22.60;60.70;;;;;;4986548;28;20129;-67
2022/10/24 03:54:18;;;;;;;0.80;0.60;;;22.60;60.70;;;;;;4984764;28;20449;-68
2022/10/24 03:56:46;;;;;;;1.35;0.70;;;22.60;60.70;;;;;;4984680;28;20027;-68
2022/10/24 03:59:12;;;;;;;0.68;0.55;;;22.60;60.70;;;;;;4993441;28;20038;-68
2022/10/24 04:01:37;;;;;;;1.40;0.65;;;22.60;60.70;;;;;;4986402;28;20501;-68
2022/10/24 04:04:03;;;;;;;0.98;0.70;;;22.50;60.60;;;;;;4992146;28;20062;-67
2022/10/24 04:06:29;;;;;;;1.33;0.68;;;22.60;60.70;;;;;;4992032;28;20418;-68
2022/10/24 04:08:55;;;;;;;0.57;0.57;;;22.50;60.60;;;;;;4993264;28;20018;-67
2022/10/24 04:11:22;;;;;;;0.80;0.60;;;22.50;60.70;;;;;;4997478;28;20049;-67
2022/10/24 04:13:47;;;;;;;1.02;0.70;;;22.50;60.70;;;;;;5002961;28;20164;-67
2022/10/24 04:16:13;;;;;;;0.80;0.60;;;22.50;60.60;;;;;;4994855;28;20590;-67
2022/10/24 04:18:39;;;;;;;0.80;0.70;;;22.50;60.60;;;;;;4997579;28;20036;-67
2022/10/24 04:21:04;;;;;;;1.08;0.70;;;22.50;60.60;;;;;;4995202;28;20117;-67
2022/10/24 04:23:34;;;;;;;0.90;0.60;;;22.50;60.70;;;;;;4994385;28;20057;-67
2022/10/24 04:26:00;;;;;;;0.93;0.70;;;22.50;60.70;;;;;;4998492;28;20630;-67
2022/10/24 04:28:28;;;;;;;1.40;0.82;;;22.50;60.70;;;;;;4978143;28;20350;-67
2022/10/24 04:30:55;;;;;;;0.75;0.70;;;22.50;60.70;;;;;;4986535;28;20029;-67
2022/10/24 04:33:21;;;;;;;1.13;0.60;;;22.50;60.70;;;;;;4974096;28;20033;-68
2022/10/24 04:35:49;;;;;;;0.95;0.60;;;22.50;60.80;;;;;;4993088;28;20034;-68
2022/10/24 04:38:15;;;;;;;0.80;0.60;;;22.50;60.70;;;;;;4996235;28;20157;-67
2022/10/24 04:40:45;;;;;;;1.25;0.60;;;22.50;60.80;;;;;;4996014;28;20032;-68
2022/10/24 04:43:11;;;;;;;0.90;0.73;;;22.50;61.00;;;;;;4997791;28;20105;-68
2022/10/24 04:45:36;;;;;;;0.75;0.70;;;22.50;60.80;;;;;;4995241;28;20149;-68
2022/10/24 04:48:02;;;;;;;0.88;0.65;;;22.50;60.80;;;;;;4974416;28;20374;-68
2022/10/24 04:50:28;;;;;;;1.08;0.70;;;22.50;60.80;;;;;;4998302;28;20030;-68
2022/10/24 04:52:53;;;;;;;0.65;0.60;;;22.50;60.80;;;;;;4996178;28;20045;-67
2022/10/24 04:55:19;;;;;;;0.63;0.60;;;22.50;60.80;;;;;;4974467;28;20133;-68
2022/10/24 04:57:44;;;;;;;0.93;0.70;;;22.50;60.80;;;;;;4986274;28;20057;-68
2022/10/24 05:00:11;;;;;;;1.20;0.70;;;22.50;60.80;;;;;;4994991;28;20054;-68
2022/10/24 05:02:36;;;;;;;1.58;0.80;;;22.50;60.80;;;;;;4975236;28;20030;-67
2022/10/24 05:05:02;;;;;;;1.05;0.70;;;22.50;60.80;;;;;;4991029;28;20032;-68
2022/10/24 05:07:28;;;;;;;2.00;0.75;;;22.50;60.80;;;;;;4999641;28;20116;-68
2022/10/24 05:09:54;;;;;;;1.20;0.70;;;22.50;60.80;;;;;;5001317;28;20125;-68
2022/10/24 05:12:19;;;;;;;1.10;0.70;;;22.50;60.80;;;;;;4998904;28;20031;-68
2022/10/24 05:14:48;;;;;;;1.60;0.70;;;22.50;60.80;;;;;;4993991;28;20042;-68
2022/10/24 05:17:13;;;;;;;1.00;0.75;;;22.50;60.80;;;;;;4999742;28;20042;-68
2022/10/24 05:19:40;;;;;;;0.60;0.55;;;22.50;60.90;;;;;;5005121;28;20031;-68
2022/10/24 05:22:05;;;;;;;1.60;0.68;;;22.50;61.40;;;;;;4999387;28;20346;-68
2022/10/24 05:24:31;;;;;;;1.83;0.90;;;22.50;60.80;;;;;;4989081;28;20018;-68
2022/10/24 05:26:57;;;;;;;0.63;0.60;;;22.50;60.90;;;;;;4997909;28;20058;-67
2022/10/24 05:29:24;;;;;;;0.90;0.60;;;22.50;60.90;;;;;;5000177;28;20026;-68
2022/10/24 05:31:50;;;;;;;0.90;0.68;;;22.50;60.80;;;;;;4997355;28;20449;-68
2022/10/24 05:34:15;;;;;;;0.93;0.70;;;22.50;60.80;;;;;;4997699;28;20049;-68
2022/10/24 05:36:42;;;;;;;0.73;0.60;;;22.50;60.80;;;;;;4977191;28;20058;-67
2022/10/24 05:39:07;;;;;;;1.13;0.70;;;22.50;60.80;;;;;;4986339;28;20030;-68
2022/10/24 05:41:33;;;;;;;1.15;0.65;;;22.50;60.80;;;;;;4990418;28;20504;-68
2022/10/24 05:43:59;;;;;;;0.90;0.60;;;22.50;60.90;;;;;;4996721;28;20093;-66
2022/10/24 05:46:24;;;;;;;0.90;0.70;;;22.50;60.90;;;;;;4995334;28;20030;-68
2022/10/24 05:48:50;;;;;;;1.70;0.80;;;22.50;60.90;;;;;;4991283;28;20663;-67
2022/10/24 05:51:15;;;;;;;1.25;0.80;;;22.50;61.00;;;;;;4978853;28;20508;-68
2022/10/24 05:53:41;;;;;;;0.90;0.65;;;22.50;60.90;;;;;;4997045;28;20045;-67
2022/10/24 05:56:07;;;;;;;1.55;0.85;;;22.50;60.90;;;;;;5001259;28;20054;-67
2022/10/24 05:58:33;;;;;;;1.27;0.80;;;22.50;60.90;;;;;;5003208;28;20026;-67
2022/10/24 06:00:58;;;;;;;1.30;0.70;;;22.40;60.80;;;;;;4996563;28;20034;-67
2022/10/24 06:03:24;;;;;;;1.50;0.90;;;22.40;60.80;;;;;;4996670;28;20367;-67
2022/10/24 06:05:50;;;;;;;1.75;0.70;;;22.40;60.80;;;;;;4995983;28;20390;-67
2022/10/24 06:08:16;;;;;;;1.13;0.70;;;22.40;60.90;;;;;;4998157;28;20421;-68
2022/10/24 06:10:46;;;;;;;1.25;0.77;;;22.40;60.80;;;;;;5000532;28;20485;-67
2022/10/24 06:13:12;;;;;;;2.05;0.90;;;22.40;60.80;;;;;;4990018;28;20018;-67
2022/10/24 06:15:40;;;;;;;1.23;0.80;;;22.40;60.80;;;;;;4985531;28;20144;-68
2022/10/24 06:18:06;;;;;;;1.52;0.85;;;22.50;60.90;;;;;;4991589;28;20046;-68
2022/10/24 06:20:31;;;;;;;1.60;1.00;;;22.40;60.80;;;;;;4994121;28;20026;-68
2022/10/24 06:22:57;;;;;;;1.60;0.90;;;22.40;60.80;;;;;;4997104;28;20123;-67
2022/10/24 06:25:22;;;;;;;1.70;0.80;;;22.40;60.80;;;;;;4996683;28;20101;-67
2022/10/24 06:27:48;;;;;;;1.20;0.80;;;22.40;60.80;;;;;;4995968;28;20369;-68
2022/10/24 06:30:14;;;;;;;1.20;0.70;;;22.40;60.80;;;;;;4993762;28;20022;-67
2022/10/24 06:32:40;;;;;;;1.55;0.80;;;22.40;60.90;;;;;;4995184;28;20054;-67
2022/10/24 06:35:06;;;;;;;1.48;0.80;;;22.40;61.30;;;;;;4990420;28;20041;-67
2022/10/24 06:37:32;;;;;;;1.52;0.70;;;22.40;60.80;;;;;;4998321;28;20030;-67
2022/10/24 06:39:58;;;;;;;1.98;0.80;;;22.40;60.80;;;;;;4997632;28;20057;-67
2022/10/24 06:42:24;;;;;;;2.35;1.00;;;22.40;60.80;;;;;;4983795;28;20451;-67
2022/10/24 06:44:50;;;;;;;1.40;0.80;;;22.40;60.80;;;;;;4995250;28;20029;-67
2022/10/24 06:47:16;;;;;;;2.58;0.90;;;22.40;60.80;;;;;;4999368;28;20025;-67
2022/10/24 06:49:42;;;;;;;1.50;0.80;;;22.40;60.80;;;;;;4966668;28;20030;-67
2022/10/24 06:52:07;;;;;;;1.67;0.90;;;22.40;60.80;;;;;;4991118;28;20037;-68
2022/10/24 06:54:34;;;;;;;1.48;0.80;;;22.40;60.80;;;;;;4996543;28;20521;-68
2022/10/24 06:57:00;;;;;;;1.30;0.80;;;22.40;60.80;;;;;;4998068;28;20554;-67
2022/10/24 06:59:26;;;;;;;1.42;0.80;;;22.40;60.80;;;;;;4979795;28;20036;-67
2022/10/24 07:01:51;;;;;;;3.00;0.80;;;22.40;60.90;;;;;;5000617;28;20134;-67
2022/10/24 07:04:17;;;;;;;2.33;0.90;;;22.40;60.90;;;;;;4978879;28;20058;-68
2022/10/24 07:06:43;;;;;;;2.17;0.77;;;22.40;60.90;;;;;;4992228;28;20027;-67
2022/10/24 07:09:10;;;;;;;1.50;0.80;;;22.40;60.80;;;;;;4986743;28;20022;-67
2022/10/24 07:11:54;;;;;;;2.42;0.90;;;22.40;60.80;;;;;;4994437;28;20486;-67
2022/10/24 07:14:24;;;;;;;1.73;0.80;;;22.40;60.90;;;;;;4985634;28;20487;-67
2022/10/24 07:16:50;;;;;;;1.05;0.80;;;22.40;60.80;;;;;;4989607;28;20045;-67
2022/10/24 07:19:16;;;;;;;1.90;1.00;;;22.30;60.80;;;;;;4988393;28;20026;-68
2022/10/24 07:21:42;;;;;;;1.50;0.82;;;22.40;60.80;;;;;;4964907;28;20034;-67
2022/10/24 07:24:11;;;;;;;1.83;1.05;;;22.40;60.80;;;;;;5005698;28;20026;-67
2022/10/24 07:26:38;;;;;;;1.25;0.80;;;22.30;60.80;;;;;;4996449;28;20094;-67
2022/10/24 07:29:04;;;;;;;1.15;0.70;;;22.40;60.90;;;;;;4995123;28;20030;-67
2022/10/24 07:31:32;;;;;;;1.67;0.73;;;22.40;60.90;;;;;;5001256;28;20038;-67
2022/10/24 07:33:59;;;;;;;1.40;0.70;;;22.30;60.80;;;;;;4991889;28;20084;-67
2022/10/24 07:36:26;;;;;;;1.52;0.90;;;22.30;60.90;;;;;;4990228;28;20446;-67
2022/10/24 07:38:54;;;;;;;1.20;0.73;;;22.30;60.80;;;;;;4998641;28;20026;-67
2022/10/24 07:41:20;;;;;;;1.80;0.93;;;22.30;60.80;;;;;;4996242;28;20365;-67
2022/10/24 07:43:45;;;;;;;1.65;0.90;;;22.30;60.80;;;;;;4997556;28;20034;-67
2022/10/24 07:46:14;;;;;;;1.80;0.80;;;22.30;60.80;;;;;;4982435;28;20423;-67
2022/10/24 07:48:41;;;;;;;1.83;1.00;;;22.30;60.80;;;;;;4997255;28;20033;-67
2022/10/24 07:51:09;;;;;;;1.30;0.90;;;22.30;60.80;;;;;;4978939;28;20467;-67
2022/10/24 07:53:35;;;;;;;1.48;0.80;;;22.30;60.80;;;;;;4977027;28;20088;-67
2022/10/24 07:56:01;;;;;;;2.50;0.90;;;22.30;60.80;;;;;;4990529;28;20029;-67
2022/10/24 07:58:28;;;;;;;1.35;0.75;;;22.30;60.80;;;;;;4989004;28;20029;-67
2022/10/24 08:00:54;;;;;;;1.30;0.82;;;22.30;60.80;;;;;;4996216;28;20067;-67
2022/10/24 08:03:22;;;;;;;1.98;0.90;;;22.30;60.80;;;;;;4994384;28;20481;-67
2022/10/24 08:05:48;;;;;;;2.08;1.13;;;22.30;60.80;;;;;;4993094;28;20023;-67
2022/10/24 08:08:13;;;;;;;1.67;0.90;;;22.30;60.80;;;;;;4993163;28;20077;-67
2022/10/24 08:10:39;;;;;;;2.05;1.08;;;22.30;60.80;;;;;;4990291;28;20098;-67
2022/10/24 08:13:04;;;;;;;2.13;0.88;;;22.30;60.80;;;;;;4989482;28;20027;-67
2022/10/24 08:15:30;;;;;;;1.88;0.80;;;22.30;60.80;;;;;;4990317;28;20037;-67
2022/10/24 08:17:56;;;;;;;1.80;1.10;;;22.30;60.80;;;;;;4997839;28;20022;-67
2022/10/24 08:20:25;;;;;;;1.75;0.80;;;22.30;60.90;;;;;;4999695;28;20107;-67
2022/10/24 08:22:51;;;;;;;1.67;1.00;;;22.30;60.80;;;;;;4996091;28;20055;-67
2022/10/24 08:25:16;;;;;;;0.95;0.70;;;22.30;60.80;;;;;;4996103;28;20046;-68
2022/10/24 08:27:42;;;;;;;1.38;0.93;;;22.30;60.80;;;;;;4990401;28;20023;-67
2022/10/24 08:30:08;;;;;;;1.90;0.90;;;22.30;60.80;;;;;;4991289;28;20026;-67
2022/10/24 08:32:34;;;;;;;1.50;0.90;;;22.30;60.90;;;;;;4993863;28;20034;-67
2022/10/24 08:35:00;;;;;;;1.45;0.80;;;22.30;60.80;;;;;;4991349;28;20112;-67
2022/10/24 08:37:26;;;;;;;1.58;0.80;;;22.30;60.80;;;;;;4978967;28;20524;-67
2022/10/24 08:39:54;;;;;;;2.33;1.00;;;22.30;60.90;;;;;;4996630;28;20133;-67
2022/10/24 08:42:23;;;;;;;2.50;1.00;;;22.30;60.90;;;;;;4992896;28;20034;-67
2022/10/24 08:44:50;;;;;;;2.28;0.90;;;22.20;60.80;;;;;;4995449;28;20041;-67
2022/10/24 08:47:25;;;;;;;1.40;0.85;;;22.20;61.40;;;;;;4988836;28;20545;-67
2022/10/24 08:49:58;;;;;;;2.28;0.70;;;22.30;60.90;;;;;;4971176;28;20023;-67
2022/10/24 08:52:50;;;;;;;1.58;1.00;;;22.20;60.80;;;;;;4989945;28;20038;-67
2022/10/24 08:55:21;;;;;;;1.65;0.80;;;22.20;60.80;;;;;;4992633;28;20473;-67
2022/10/24 08:57:54;;;;;;;1.83;0.90;;;22.20;60.80;;;;;;4995912;28;20048;-67
2022/10/24 09:00:31;;;;;;;1.60;0.82;;;22.30;60.90;;;;;;4998672;28;20026;-67
2022/10/24 09:03:11;;;;;;;1.88;0.95;;;22.20;60.80;;;;;;4994938;28;20029;-67
2022/10/24 09:05:44;;;;;;;1.98;0.90;;;22.20;60.90;;;;;;4996279;28;20464;-67
2022/10/24 09:08:26;;;;;;;1.63;0.90;;;22.20;60.90;;;;;;4997849;28;20022;-67
2022/10/24 09:11:04;;;;;;;2.28;0.80;;;22.20;60.90;;;;;;4998430;28;20081;-67
2022/10/24 09:13:34;;;;;;;1.48;0.80;;;22.20;61.40;;;;;;4995463;28;20561;-67
2022/10/24 09:16:00;;;;;;;1.33;0.85;;;22.20;60.80;;;;;;4997882;28;20137;-67
2022/10/24 09:18:37;;;;;;;1.58;0.82;;;22.20;60.80;;;;;;4992479;28;20122;-67
2022/10/24 09:21:06;;;;;;;1.08;0.70;;;22.30;60.90;;;;;;4959930;28;20038;-68
2022/10/24 09:23:33;;;;;;;1.70;0.93;;;22.20;60.90;;;;;;4992530;28;20508;-67
2022/10/24 09:25:59;;;;;;;1.70;0.80;;;22.20;60.90;;;;;;4989853;28;20057;-67
2022/10/24 09:28:25;;;;;;;2.25;1.00;;;22.20;60.90;;;;;;4962325;28;20030;-67
2022/10/24 09:30:51;;;;;;;1.55;0.85;;;22.20;60.90;;;;;;4992498;28;20525;-68
2022/10/24 09:33:23;;;;;;;1.75;0.80;;;22.20;60.90;;;;;;4976947;28;20057;-67
2022/10/24 09:35:51;;;;;;;1.95;1.02;;;22.20;60.90;;;;;;5001613;28;20474;-67
2022/10/24 09:38:27;;;;;;;1.33;0.80;;;22.20;60.90;;;;;;5000012;28;20026;-67
2022/10/24 09:40:59;;;;;;;1.92;0.90;;;22.20;60.80;;;;;;4987182;28;20764;-67
2022/10/24 09:43:54;;;;;;;1.50;0.77;;;22.20;60.90;;;;;;4995816;28;20335;-67
2022/10/24 09:46:22;;;;;;;1.77;0.82;;;22.20;60.90;;;;;;4978726;28;20061;-67
2022/10/24 09:49:16;;;;;;;1.58;0.80;;;22.20;60.90;;;;;;4984324;28;20084;-68
2022/10/24 09:52:05;;;;;;;1.30;0.73;;;22.20;60.90;;;;;;4992564;28;20509;-67
2022/10/24 09:54:34;;;;;;;1.02;0.70;;;22.20;60.90;;;;;;4990056;28;20030;-67
2022/10/24 09:57:26;;;;;;;1.27;0.75;;;22.20;60.90;;;;;;4964813;28;20057;-67
2022/10/24 09:59:59;;;;;;;1.90;0.82;;;22.20;60.90;;;;;;4990671;28;20088;-68
2022/10/24 10:02:33;;;;;;;1.13;0.88;;;22.20;60.90;;;;;;4997223;28;20040;-67
2022/10/24 10:05:01;;;;;;;1.98;0.90;;;22.20;60.90;;;;;;4996444;28;20077;-67
2022/10/24 10:07:33;;;;;;;1.43;0.80;;;22.20;60.90;;;;;;4980223;28;20362;-67
2022/10/24 10:10:05;;;;;;;1.42;0.80;;;22.20;60.90;;;;;;4979120;28;20280;-67
2022/10/24 10:12:41;;;;;;;1.48;0.88;;;22.20;60.80;;;;;;5000505;28;20112;-67
2022/10/24 10:15:23;;;;;;;1.92;0.80;;;22.20;60.90;;;;;;5000282;28;20058;-67
2022/10/24 10:17:54;;;;;;;1.40;0.80;;;22.20;60.90;;;;;;4989107;28;20077;-67
2022/10/24 10:20:34;;;;;;;1.40;0.80;;;22.20;60.80;;;;;;4994634;28;20026;-67
2022/10/24 10:23:24;;;;;;;1.65;0.88;;;22.20;60.80;;;;;;4983651;28;20037;-67
2022/10/24 10:26:03;;;;;;;1.50;0.80;;;22.20;60.80;;;;;;4998059;28;20156;-68
2022/10/24 10:28:28;;;;;;;1.08;0.75;;;22.20;60.80;;;;;;4996726;28;20445;-67
2022/10/24 10:30:58;;;;;;;1.23;0.70;;;22.20;60.80;;;;;;4987292;28;20037;-67
2022/10/24 10:33:52;;;;;;;1.35;0.80;;;22.20;60.80;;;;;;4972212;28;20398;-67
2022/10/24 10:36:29;;;;;;;1.02;0.75;;;22.20;60.80;;;;;;4992077;28;20030;-67
2022/10/24 10:39:18;;;;;;;1.23;0.70;;;22.20;60.80;;;;;;4977688;28;20085;-67
2022/10/24 10:41:59;;;;;;;1.10;0.73;;;22.20;60.80;;;;;;4996943;28;20031;-67
2022/10/24 10:44:40;;;;;;;1.42;0.70;;;22.20;60.70;;;;;;4993532;28;20105;-67
2022/10/24 10:47:45;;;;;;;1.23;0.82;;;22.20;60.70;;;;;;4980633;28;20030;-68
2022/10/24 10:50:35;;;;;;;1.50;0.80;;;22.20;60.70;;;;;;4952622;28;20033;-68
2022/10/24 10:53:24;;;;;;;1.50;0.90;;;22.20;60.70;;;;;;4983121;28;20046;-67
2022/10/24 10:56:01;;;;;;;1.70;0.75;;;22.20;60.70;;;;;;4995418;28;20031;-68
2022/10/24 10:59:02;;;;;;;1.27;0.70;;;22.20;60.70;;;;;;4996162;28;20500;-67
2022/10/24 11:01:31;;;;;;;1.23;0.80;;;22.20;60.70;;;;;;4992924;28;20421;-67
2022/10/24 11:04:25;;;;;;;1.52;0.82;;;22.20;60.70;;;;;;4989146;28;20054;-67
2022/10/24 11:07:15;;;;;;;1.33;0.88;;;22.20;60.70;;;;;;4993545;28;20077;-67
2022/10/24 11:09:55;;;;;;;2.00;0.93;;;22.10;60.60;;;;;;4967956;28;20480;-68
2022/10/24 11:12:39;;;;;;;2.00;0.90;;;22.20;60.70;;;;;;4994882;28;20030;-68
2022/10/24 11:15:18;;;;;;;2.40;1.00;;;22.20;60.70;;;;;;4992841;28;20400;-68
2022/10/24 11:18:07;;;;;;;1.13;0.70;;;22.20;60.70;;;;;;5002602;28;20516;-68
2022/10/24 11:20:43;;;;;;;1.13;0.80;;;22.20;60.60;;;;;;5000216;28;20512;-68
2022/10/24 11:23:08;;;;;;;2.70;1.15;;;22.20;60.60;;;;;;4992884;28;20477;-68
2022/10/24 11:25:49;;;;;;;2.15;1.10;;;22.20;60.70;;;;;;4997361;28;20030;-69
2022/10/24 11:28:21;;;;;;;1.63;0.95;;;22.20;60.70;;;;;;4996403;28;20023;-68
2022/10/24 11:31:22;;;;;;;1.98;1.10;;;22.20;60.70;;;;;;4991976;28;20030;-68
2022/10/24 11:34:01;;;;;;;1.55;1.00;;;22.20;60.80;;;;;;4989082;28;20035;-68
2022/10/24 11:36:48;;;;;;;1.52;0.90;;;22.20;60.70;;;;;;4991227;28;20034;-68
2022/10/24 11:39:29;;;;;;;2.42;1.10;;;22.20;60.70;;;;;;4998099;28;20034;-68
2022/10/24 11:42:05;;;;;;;1.98;1.10;;;22.20;60.70;;;;;;4998573;28;20061;-68
2022/10/24 11:44:52;;;;;;;2.90;1.20;;;22.20;60.70;;;;;;4990654;28;20085;-67
2022/10/24 11:47:24;;;;;;;1.58;0.93;;;22.20;60.70;;;;;;4993921;28;20030;-67
2022/10/24 11:50:21;;;;;;;3.47;1.45;;;22.10;60.70;;;;;;4992224;28;20034;-68
2022/10/24 11:53:22;;;;;;;2.25;1.45;;;22.10;60.60;;;;;;4990893;28;20038;-67
2022/10/24 11:56:01;;;;;;;1.98;1.00;;;22.10;60.70;;;;;;5000208;28;20029;-67
2022/10/24 11:58:31;;;;;;;1.67;0.95;;;22.20;60.60;;;;;;4998095;28;20054;-68
2022/10/24 12:01:19;;;;;;;;;;;22.20;60.80;;;;;;4992728;28;20081;-67
2022/10/24 12:03:51;;;;;;;1.80;1.10;;;22.20;60.70;;;;;;4971277;28;20385;-68
2022/10/24 12:06:17;;;;;;;2.20;0.98;;;22.20;60.70;;;;;;4992049;28;20504;-67
2022/10/24 12:09:04;;;;;;;2.75;1.00;;;22.20;60.80;;;;;;4993536;28;20026;-68
2022/10/24 12:11:59;;;;;;;2.42;0.88;;;22.20;60.80;;;;;;4971722;28;20061;-67
2022/10/24 12:14:42;;;;;;;2.13;1.00;;;22.20;60.70;;;;;;4993213;28;20553;-67
2022/10/24 12:17:45;;;;;;;2.40;1.27;;;22.20;60.80;;;;;;5004237;28;20082;-67
2022/10/24 12:20:16;;;;;;;3.58;1.25;;;22.20;60.70;;;;;;4995463;28;20566;-67
2022/10/24 12:22:43;;;;;;;2.00;1.00;;;22.10;60.70;;;;;;4976699;28;20063;-67
2022/10/24 12:25:21;;;;;;;2.65;1.10;;;22.20;60.80;;;;;;4981621;28;20489;-67
2022/10/24 12:27:53;;;;;;;2.33;1.10;;;22.20;60.80;;;;;;4980563;28;20117;-67
2022/10/24 12:30:20;;;;;;;1.83;1.02;;;22.10;60.70;;;;;;4994127;28;20022;-67
2022/10/24 12:32:50;;;;;;;2.95;1.10;;;22.20;60.80;;;;;;4996009;28;20501;-67
2022/10/24 12:35:34;;;;;;;1.75;1.00;;;22.20;60.70;;;;;;4998024;28;20040;-67
2022/10/24 12:38:12;;;;;;;2.45;1.00;;;22.20;60.80;;;;;;4995462;28;20034;-67
2022/10/24 12:40:44;;;;;;;1.55;1.00;;;22.20;60.80;;;;;;4991567;28;20114;-67
2022/10/24 12:43:28;;;;;;;2.13;1.00;;;22.10;60.70;;;;;;4990770;28;20053;-67
2022/10/24 12:45:55;;;;;;;1.70;1.10;;;22.10;60.70;;;;;;4990646;28;20026;-67
2022/10/24 12:48:31;;;;;;;2.10;1.00;;;22.10;60.60;;;;;;4996610;28;20300;-67
2022/10/24 12:51:24;;;;;;;2.28;1.00;;;22.10;60.60;;;;;;4988308;28;20334;-67
2022/10/24 12:54:16;;;;;;;1.27;0.80;;;22.20;60.60;;;;;;5000488;28;20492;-67
2022/10/24 12:56:51;;;;;;;2.83;1.20;;;22.20;60.60;;;;;;4995686;28;20133;-67
2022/10/24 12:59:39;;;;;;;2.47;0.93;;;22.20;60.60;;;;;;4977182;28;20026;-67
2022/10/24 13:02:36;;;;;;;1.38;0.82;;;22.10;60.60;;;;;;4982326;28;20259;-67
2022/10/24 13:05:20;;;;;;;1.92;1.02;;;22.10;60.50;;;;;;4991817;28;20030;-67
2022/10/24 13:07:51;;;;;;;1.40;0.85;;;22.10;60.50;;;;;;4978465;28;20054;-67
2022/10/24 13:10:36;;;;;;;1.30;0.77;;;22.10;60.50;;;;;;4986875;28;20037;-67